Time;durP1;ratioP1;P1;durP2;ratioP2;P2;SDS_P1;SDS_P2;PMS_P1;PMS_P2;Temp;Humidity;BMP_temperature;BMP_pressure;BME280_temperature;BME280_humidity;BME280_pressure;Samples;Min_cycle;Max_cycle;Signal;HPM_P1;HPM_P2
2021/11/15 00:00:00;;;;;;;66.55;19.20;;;;;;;;;;5075449;28;21006;-60
2021/11/15 00:02:26;;;;;;;62.88;17.52;;;;;;;;;;5075353;28;22030;-60
2021/11/15 00:04:55;;;;;;;78.97;20.90;;;;;;;;;;5074200;28;20482;-60
2021/11/15 00:07:21;;;;;;;77.75;20.98;;;;;;;;;;5061091;28;20173;-60
2021/11/15 00:09:49;;;;;;;71.65;19.05;;;;;;;;;;5076488;28;20024;-61
2021/11/15 00:12:17;;;;;;;71.32;18.27;;;;;;;;;;5076185;28;20042;-60
2021/11/15 00:14:47;;;;;;;66.07;19.77;;;;;;;;;;5061967;28;20093;-61
2021/11/15 00:17:13;;;;;;;68.45;21.25;;;;;;;;;;5064262;28;20474;-60
2021/11/15 00:19:39;;;;;;;68.90;21.17;;;;;;;;;;5075733;27;20059;-60
2021/11/15 00:22:04;;;;;;;68.00;20.58;;;;;;;;;;5076355;28;20122;-59
2021/11/15 00:24:32;;;;;;;63.97;18.25;;;;;;;;;;5073074;28;20591;-60
2021/11/15 00:26:58;;;;;;;73.75;20.25;;;;;;;;;;5075835;28;20638;-59
2021/11/15 00:29:26;;;;;;;65.20;19.30;;;;;;;;;;5074819;28;20036;-60
2021/11/15 00:31:57;;;;;;;76.43;19.77;;;;;;;;;;5081566;28;20581;-60
2021/11/15 00:34:25;;;;;;;67.90;19.08;;;;;;;;;;5081636;28;20123;-61
2021/11/15 00:36:53;;;;;;;61.60;19.80;;;;;;;;;;5076678;27;20446;-60
2021/11/15 00:39:24;;;;;;;59.30;18.50;;;;;;;;;;5081641;28;20577;-60
2021/11/15 00:41:51;;;;;;;77.47;20.48;;;;;;;;;;5074824;27;20674;-60
2021/11/15 00:44:17;;;;;;;73.63;19.88;;;;;;;;;;5075328;28;20028;-60
2021/11/15 00:46:44;;;;;;;69.50;19.70;;;;;;;;;;5065951;28;20097;-60
2021/11/15 00:49:15;;;;;;;74.07;20.42;;;;;;;;;;5077373;28;20077;-60
2021/11/15 00:51:45;;;;;;;59.90;18.00;;;;;;;;;;5075368;28;20137;-60
2021/11/15 00:54:10;;;;;;;75.50;21.10;;;;;;;;;;5061396;28;20067;-61
2021/11/15 00:56:36;;;;;;;54.53;18.20;;;;;;;;;;5056320;28;22095;-61
2021/11/15 01:02:53;;;;;;;62.83;17.85;;;;;;;;;;5072414;28;20046;-61
2021/11/15 01:05:49;;;;;;;70.88;19.25;;;;;;;;;;5077164;27;20036;-60
2021/11/15 01:08:16;;;;;;;62.17;18.77;;;;;;;;;;5080090;28;20040;-60
2021/11/15 01:10:46;;;;;;;59.88;18.42;;;;;;;;;;5075220;27;20027;-61
2021/11/15 01:13:14;;;;;;;52.78;17.23;;;;;;;;;;5058819;28;20035;-62
2021/11/15 01:15:39;;;;;;;64.78;18.85;;;;;;;;;;5057767;28;20514;-61
2021/11/15 01:18:08;;;;;;;62.53;17.02;;;;;;;;;;5075153;28;20084;-61
2021/11/15 01:20:38;;;;;;;57.33;17.83;;;;;;;;;;5063510;28;20031;-63
2021/11/15 01:23:07;;;;;;;49.10;17.65;;;;;;;;;;5077653;28;20023;-60
2021/11/15 01:25:33;;;;;;;61.45;17.27;;;;;;;;;;5072679;28;20028;-60
2021/11/15 01:28:01;;;;;;;54.88;17.25;;;;;;;;;;5075849;28;20036;-61
2021/11/15 01:30:28;;;;;;;48.35;15.80;;;;;;;;;;5073674;28;20028;-61
2021/11/15 01:32:53;;;;;;;54.63;17.10;;;;;;;;;;5067775;27;20039;-61
2021/11/15 01:35:20;;;;;;;51.20;15.75;;;;;;;;;;5078753;28;20752;-59
2021/11/15 01:37:48;;;;;;;59.38;17.75;;;;;;;;;;5074646;28;20587;-61
2021/11/15 01:40:15;;;;;;;63.28;17.70;;;;;;;;;;5079204;28;20034;-60
2021/11/15 01:42:43;;;;;;;67.00;18.83;;;;;;;;;;5074835;28;21939;-60
2021/11/15 01:45:09;;;;;;;54.42;18.60;;;;;;;;;;5075178;28;20024;-61
2021/11/15 01:47:38;;;;;;;63.45;17.55;;;;;;;;;;5074464;28;20146;-60
2021/11/15 01:50:05;;;;;;;66.82;16.70;;;;;;;;;;5076672;28;20202;-59
2021/11/15 01:52:33;;;;;;;60.60;17.95;;;;;;;;;;5078714;28;20028;-59
2021/11/15 01:55:00;;;;;;;61.03;17.73;;;;;;;;;;5082401;28;20435;-60
2021/11/15 01:57:31;;;;;;;61.08;17.83;;;;;;;;;;5072907;28;20043;-60
2021/11/15 01:59:58;;;;;;;56.95;17.05;;;;;;;;;;5070717;28;20163;-61
2021/11/15 02:02:26;;;;;;;61.17;17.75;;;;;;;;;;5060272;28;20019;-61
2021/11/15 02:04:57;;;;;;;53.88;16.35;;;;;;;;;;5071720;28;20036;-61
2021/11/15 02:07:23;;;;;;;56.08;15.20;;;;;;;;;;5072131;28;20680;-59
2021/11/15 02:09:53;;;;;;;60.53;16.23;;;;;;;;;;5075797;28;20035;-60
2021/11/15 02:12:20;;;;;;;56.90;16.90;;;;;;;;;;5077168;27;20035;-61
2021/11/15 02:14:46;;;;;;;57.42;16.20;;;;;;;;;;5077567;28;20028;-60
2021/11/15 02:17:16;;;;;;;54.58;18.25;;;;;;;;;;5076776;28;20032;-60
2021/11/15 02:19:43;;;;;;;59.42;16.20;;;;;;;;;;5063880;28;20046;-60
2021/11/15 02:22:15;;;;;;;58.22;15.40;;;;;;;;;;5077573;28;20016;-60
2021/11/15 02:24:42;;;;;;;56.25;14.85;;;;;;;;;;5078091;28;20035;-61
2021/11/15 02:30:48;;;;;;;46.20;14.18;;;;;;;;;;5077173;28;20041;-59
2021/11/15 02:33:15;;;;;;;53.53;15.15;;;;;;;;;;5067745;28;20039;-60
2021/11/15 02:35:43;;;;;;;49.50;14.25;;;;;;;;;;5083546;28;20389;-62
2021/11/15 02:38:09;;;;;;;55.35;15.48;;;;;;;;;;5057706;28;20039;-61
2021/11/15 02:40:34;;;;;;;51.38;14.98;;;;;;;;;;5077923;28;20039;-60
2021/11/15 02:43:02;;;;;;;51.63;13.30;;;;;;;;;;5066907;28;20032;-60
2021/11/15 02:45:28;;;;;;;52.17;14.75;;;;;;;;;;5078095;28;20034;-60
2021/11/15 02:47:54;;;;;;;53.88;13.63;;;;;;;;;;5060574;28;20023;-60
2021/11/15 02:50:21;;;;;;;46.35;13.30;;;;;;;;;;5076054;28;20040;-61
2021/11/15 02:52:51;;;;;;;50.88;14.25;;;;;;;;;;5077707;27;20028;-60
2021/11/15 02:55:24;;;;;;;47.55;14.45;;;;;;;;;;5077190;28;20110;-60
2021/11/15 02:57:52;;;;;;;45.85;14.30;;;;;;;;;;5077529;28;20054;-60
2021/11/15 03:00:26;;;;;;;51.70;13.32;;;;;;;;;;5059534;28;20044;-60
2021/11/15 03:02:53;;;;;;;46.53;15.02;;;;;;;;;;5077672;28;20031;-62
2021/11/15 03:05:22;;;;;;;48.10;14.23;;;;;;;;;;5067291;28;20994;-61
2021/11/15 03:07:50;;;;;;;50.80;13.15;;;;;;;;;;5076496;28;20044;-61
2021/11/15 03:10:16;;;;;;;46.13;13.23;;;;;;;;;;5067130;27;20078;-60
2021/11/15 03:12:41;;;;;;;45.83;13.60;;;;;;;;;;5075830;28;20524;-61
2021/11/15 03:15:19;;;;;;;37.92;10.55;;;;;;;;;;5077394;28;20040;-60
2021/11/15 03:17:57;;;;;;;33.75;11.23;;;;;;;;;;5078989;28;20494;-62
2021/11/15 03:20:32;;;;;;;43.78;13.18;;;;;;;;;;5078015;28;20032;-61
2021/11/15 03:23:05;;;;;;;48.13;13.98;;;;;;;;;;5075394;28;20118;-60
2021/11/15 03:25:36;;;;;;;54.08;15.65;;;;;;;;;;5073290;28;20031;-60
2021/11/15 03:28:10;;;;;;;51.58;16.20;;;;;;;;;;5078121;28;20027;-60
2021/11/15 03:30:38;;;;;;;54.78;14.80;;;;;;;;;;5074996;28;21088;-59
2021/11/15 03:33:08;;;;;;;59.83;15.70;;;;;;;;;;5078245;28;20032;-61
2021/11/15 03:35:38;;;;;;;62.17;17.10;;;;;;;;;;5077408;28;20111;-60
2021/11/15 03:38:04;;;;;;;55.05;15.43;;;;;;;;;;5075399;27;20035;-60
2021/11/15 03:40:30;;;;;;;60.63;17.77;;;;;;;;;;5074932;27;20035;-60
2021/11/15 03:43:01;;;;;;;62.05;16.50;;;;;;;;;;5076678;27;20032;-60
2021/11/15 03:45:32;;;;;;;63.50;17.45;;;;;;;;;;5075866;27;20028;-59
2021/11/15 03:47:58;;;;;;;57.67;18.00;;;;;;;;;;5076732;28;20070;-60
2021/11/15 03:50:26;;;;;;;64.97;17.77;;;;;;;;;;5073373;28;20114;-61
2021/11/15 03:52:54;;;;;;;74.40;19.00;;;;;;;;;;5077033;28;20595;-60
2021/11/15 03:55:23;;;;;;;58.22;16.35;;;;;;;;;;5061037;28;20063;-60
2021/11/15 03:57:52;;;;;;;62.55;17.25;;;;;;;;;;5056708;28;20055;-60
2021/11/15 04:00:21;;;;;;;76.47;18.30;;;;;;;;;;5077128;28;20035;-61
2021/11/15 04:02:51;;;;;;;69.80;19.17;;;;;;;;;;5081793;28;20052;-60
2021/11/15 04:05:27;;;;;;;60.40;16.35;;;;;;;;;;5092230;27;20031;-62
2021/11/15 04:07:55;;;;;;;63.28;18.90;;;;;;;;;;5076886;28;20601;-59
2021/11/15 04:10:23;;;;;;;58.97;17.42;;;;;;;;;;5083246;27;20699;-60
2021/11/15 04:12:53;;;;;;;68.30;16.70;;;;;;;;;;5076494;27;20056;-60
2021/11/15 04:15:18;;;;;;;61.65;17.63;;;;;;;;;;5076474;28;20023;-59
2021/11/15 04:17:48;;;;;;;68.35;17.60;;;;;;;;;;5078439;27;20140;-61
2021/11/15 04:20:18;;;;;;;66.40;17.80;;;;;;;;;;5073377;28;20061;-60
2021/11/15 04:22:44;;;;;;;79.43;19.13;;;;;;;;;;5075573;28;20020;-60
2021/11/15 04:25:13;;;;;;;74.80;19.17;;;;;;;;;;5091776;27;20032;-59
2021/11/15 04:27:43;;;;;;;63.38;18.48;;;;;;;;;;5076715;28;20024;-61
2021/11/15 04:30:12;;;;;;;71.45;18.35;;;;;;;;;;5071678;28;20483;-60
2021/11/15 04:32:38;;;;;;;74.60;20.23;;;;;;;;;;5083407;28;20024;-60
2021/11/15 04:35:04;;;;;;;80.55;20.48;;;;;;;;;;5048524;28;20060;-60
2021/11/15 04:37:30;;;;;;;90.10;21.52;;;;;;;;;;5075161;28;20041;-60
2021/11/15 04:39:58;;;;;;;86.35;21.50;;;;;;;;;;5074294;28;20036;-59
2021/11/15 04:42:25;;;;;;;75.63;20.80;;;;;;;;;;5073582;28;20183;-61
2021/11/15 04:47:56;;;;;;;75.53;21.35;;;;;;;;;;5076530;28;20208;-61
2021/11/15 04:50:27;;;;;;;88.97;21.15;;;;;;;;;;5077100;28;20055;-60
2021/11/15 04:52:52;;;;;;;81.88;20.15;;;;;;;;;;5073427;28;20028;-59
2021/11/15 04:55:21;;;;;;;80.95;19.75;;;;;;;;;;5055041;28;20036;-60
2021/11/15 04:57:49;;;;;;;75.78;17.88;;;;;;;;;;5056961;28;20048;-61
2021/11/15 05:00:19;;;;;;;66.20;17.88;;;;;;;;;;5074654;28;20445;-59
2021/11/15 05:02:48;;;;;;;67.97;15.50;;;;;;;;;;5073946;28;20028;-61
2021/11/15 05:05:22;;;;;;;59.85;16.42;;;;;;;;;;5071350;28;20028;-63
2021/11/15 05:07:53;;;;;;;66.97;17.63;;;;;;;;;;5074742;28;20024;-62
2021/11/15 05:10:20;;;;;;;78.28;20.63;;;;;;;;;;5076625;27;20857;-59
2021/11/15 05:12:48;;;;;;;77.60;19.65;;;;;;;;;;5079015;28;20112;-62
2021/11/15 05:15:18;;;;;;;76.93;21.15;;;;;;;;;;5063779;28;20031;-60
2021/11/15 05:17:47;;;;;;;75.88;21.23;;;;;;;;;;5074772;28;20034;-60
2021/11/15 05:20:12;;;;;;;75.72;20.77;;;;;;;;;;5063037;28;20059;-60
2021/11/15 05:22:41;;;;;;;89.13;22.35;;;;;;;;;;5073734;28;20039;-60
2021/11/15 05:25:07;;;;;;;67.85;20.00;;;;;;;;;;5075144;28;20090;-59
2021/11/15 05:27:32;;;;;;;87.93;19.27;;;;;;;;;;5074339;28;20494;-60
2021/11/15 05:29:58;;;;;;;85.78;22.83;;;;;;;;;;5075150;28;20032;-61
2021/11/15 05:32:30;;;;;;;93.07;21.58;;;;;;;;;;5075335;28;20035;-59
2021/11/15 05:35:02;;;;;;;75.88;19.77;;;;;;;;;;5075387;28;20037;-61
2021/11/15 05:37:30;;;;;;;71.55;19.10;;;;;;;;;;5075964;28;20116;-61
2021/11/15 05:39:55;;;;;;;73.32;18.52;;;;;;;;;;5057474;28;20120;-60
2021/11/15 05:42:23;;;;;;;70.65;19.25;;;;;;;;;;5075155;28;20028;-61
2021/11/15 05:44:54;;;;;;;73.85;20.02;;;;;;;;;;5074075;28;20039;-60
2021/11/15 05:50:34;;;;;;;66.18;19.23;;;;;;;;;;5074132;28;20126;-60
2021/11/15 05:53:00;;;;;;;64.03;16.55;;;;;;;;;;5073967;28;20039;-60
2021/11/15 05:55:26;;;;;;;76.70;19.45;;;;;;;;;;5078130;28;20162;-61
2021/11/15 05:57:52;;;;;;;69.38;19.73;;;;;;;;;;5077898;28;20088;-61
2021/11/15 06:00:19;;;;;;;72.10;19.85;;;;;;;;;;5075678;28;20047;-59
2021/11/15 06:02:49;;;;;;;73.15;18.88;;;;;;;;;;5081920;28;20055;-61
2021/11/15 06:05:15;;;;;;;74.47;20.42;;;;;;;;;;5082148;28;20318;-60
2021/11/15 06:07:43;;;;;;;76.82;19.63;;;;;;;;;;5059816;28;20024;-62
2021/11/15 06:10:12;;;;;;;68.85;18.23;;;;;;;;;;5075081;28;20028;-62
2021/11/15 06:12:38;;;;;;;72.78;19.85;;;;;;;;;;5081036;28;20028;-61
2021/11/15 06:15:04;;;;;;;77.55;19.50;;;;;;;;;;5074222;28;20067;-61
2021/11/15 06:17:32;;;;;;;68.35;17.42;;;;;;;;;;5070795;28;20530;-61
2021/11/15 06:19:57;;;;;;;65.75;17.88;;;;;;;;;;5060879;28;20063;-62
2021/11/15 06:22:25;;;;;;;67.43;18.90;;;;;;;;;;5077179;28;20024;-61
2021/11/15 06:24:51;;;;;;;62.28;15.02;;;;;;;;;;5077865;28;20523;-61
2021/11/15 06:27:19;;;;;;;71.68;18.20;;;;;;;;;;5078101;28;20024;-61
2021/11/15 06:29:47;;;;;;;92.35;20.27;;;;;;;;;;5076172;28;20041;-63
2021/11/15 06:32:13;;;;;;;72.13;18.08;;;;;;;;;;5083207;28;20612;-62
2021/11/15 06:34:39;;;;;;;67.70;17.40;;;;;;;;;;5082077;28;20036;-61
2021/11/15 06:37:06;;;;;;;65.60;15.68;;;;;;;;;;5075962;28;20491;-60
2021/11/15 06:39:31;;;;;;;71.47;18.75;;;;;;;;;;5057101;28;20036;-61
2021/11/15 06:41:57;;;;;;;71.32;19.67;;;;;;;;;;5074100;28;20097;-62
2021/11/15 06:44:26;;;;;;;73.45;18.83;;;;;;;;;;5079636;28;20115;-60
2021/11/15 06:46:51;;;;;;;78.97;21.02;;;;;;;;;;5065950;28;22041;-61
2021/11/15 06:49:21;;;;;;;61.42;17.98;;;;;;;;;;5076158;28;20028;-60
2021/11/15 06:55:01;;;;;;;65.90;15.63;;;;;;;;;;5075860;28;20059;-60
2021/11/15 06:57:28;;;;;;;56.17;16.48;;;;;;;;;;5078866;28;20036;-60
2021/11/15 06:59:54;;;;;;;63.42;16.70;;;;;;;;;;5076535;27;20028;-59
2021/11/15 07:02:20;;;;;;;57.70;14.90;;;;;;;;;;5078354;28;20035;-59
2021/11/15 07:04:48;;;;;;;58.92;14.93;;;;;;;;;;5078399;28;20031;-60
2021/11/15 07:07:16;;;;;;;49.97;13.95;;;;;;;;;;5077465;28;20505;-59
2021/11/15 07:09:46;;;;;;;55.33;15.25;;;;;;;;;;5079287;28;20031;-60
2021/11/15 07:12:17;;;;;;;64.93;15.52;;;;;;;;;;5080000;27;20119;-60
2021/11/15 07:14:45;;;;;;;52.92;14.15;;;;;;;;;;5078716;28;20031;-59
2021/11/15 07:17:13;;;;;;;54.03;13.73;;;;;;;;;;5086742;27;20059;-59
2021/11/15 07:19:39;;;;;;;52.78;14.35;;;;;;;;;;5075218;28;20039;-60
2021/11/15 07:22:07;;;;;;;47.72;13.30;;;;;;;;;;5049123;28;20028;-59
2021/11/15 07:24:32;;;;;;;50.13;12.07;;;;;;;;;;5077574;27;20032;-59
2021/11/15 07:27:01;;;;;;;62.08;13.38;;;;;;;;;;5077946;28;20035;-59
2021/11/15 07:29:26;;;;;;;34.35;10.63;;;;;;;;;;5077715;27;20025;-60
2021/11/15 07:31:54;;;;;;;41.47;11.77;;;;;;;;;;5069297;27;20113;-60
2021/11/15 07:34:27;;;;;;;41.30;10.32;;;;;;;;;;5077121;27;20023;-61
2021/11/15 07:36:52;;;;;;;45.22;11.40;;;;;;;;;;5076307;27;20064;-60
2021/11/15 07:39:18;;;;;;;38.78;10.48;;;;;;;;;;5077367;27;20928;-63
2021/11/15 07:41:49;;;;;;;42.80;10.75;;;;;;;;;;5077906;28;20024;-60
2021/11/15 07:44:17;;;;;;;45.85;9.95;;;;;;;;;;5076235;27;20115;-60
2021/11/15 07:46:42;;;;;;;35.75;10.65;;;;;;;;;;5067141;28;20020;-62
2021/11/15 07:49:08;;;;;;;41.08;10.13;;;;;;;;;;5074596;27;20100;-59
2021/11/15 07:51:34;;;;;;;48.75;11.32;;;;;;;;;;5075518;28;20138;-60
2021/11/15 07:54:04;;;;;;;49.70;11.45;;;;;;;;;;5080469;28;20035;-60
2021/11/15 07:56:29;;;;;;;43.63;11.48;;;;;;;;;;5076294;28;20154;-61
2021/11/15 07:58:55;;;;;;;40.50;10.40;;;;;;;;;;5076397;28;20042;-60
2021/11/15 08:01:22;;;;;;;51.20;11.60;;;;;;;;;;5092199;27;22035;-60
2021/11/15 08:03:48;;;;;;;39.65;10.20;;;;;;;;;;5059875;28;20027;-60
2021/11/15 08:06:15;;;;;;;50.95;11.13;;;;;;;;;;5077314;28;20056;-60
2021/11/15 08:08:41;;;;;;;35.88;10.90;;;;;;;;;;5077213;28;20031;-60
2021/11/15 08:11:07;;;;;;;43.85;10.10;;;;;;;;;;5078028;28;20035;-60
2021/11/15 08:13:33;;;;;;;40.53;11.10;;;;;;;;;;5076627;28;20549;-60
2021/11/15 08:16:01;;;;;;;38.40;10.18;;;;;;;;;;5074627;28;20955;-60
2021/11/15 08:18:27;;;;;;;50.42;11.77;;;;;;;;;;5077559;28;20036;-60
2021/11/15 08:20:57;;;;;;;47.08;10.23;;;;;;;;;;5072471;28;20028;-59
2021/11/15 08:23:23;;;;;;;42.45;9.52;;;;;;;;;;5076671;27;20770;-60
2021/11/15 08:26:03;;;;;;;42.53;9.98;;;;;;;;;;5076889;28;20027;-60
2021/11/15 08:28:32;;;;;;;33.70;8.20;;;;;;;;;;5082125;28;20031;-59
2021/11/15 08:30:58;;;;;;;36.53;9.52;;;;;;;;;;5075668;28;20031;-59
2021/11/15 08:33:28;;;;;;;29.25;9.70;;;;;;;;;;5074450;28;20031;-59
2021/11/15 08:35:54;;;;;;;38.92;10.02;;;;;;;;;;5076148;28;20615;-60
2021/11/15 08:38:43;;;;;;;39.92;9.68;;;;;;;;;;5074027;28;20036;-60
2021/11/15 08:41:09;;;;;;;40.97;10.48;;;;;;;;;;5076739;28;20081;-59
2021/11/15 08:43:36;;;;;;;30.58;9.15;;;;;;;;;;5074649;27;20038;-60
2021/11/15 08:46:02;;;;;;;39.55;9.85;;;;;;;;;;5073221;28;20035;-60
2021/11/15 08:48:30;;;;;;;34.47;8.95;;;;;;;;;;5070343;28;20024;-59
2021/11/15 08:50:56;;;;;;;37.13;9.63;;;;;;;;;;5074155;27;20124;-59
2021/11/15 08:53:26;;;;;;;39.33;9.95;;;;;;;;;;5059419;28;20027;-59
2021/11/15 08:55:54;;;;;;;37.42;10.13;;;;;;;;;;5055547;28;20050;-60
2021/11/15 08:58:22;;;;;;;37.10;9.13;;;;;;;;;;5060586;28;20055;-59
2021/11/15 09:00:50;;;;;;;45.17;9.48;;;;;;;;;;5069834;28;21969;-59
2021/11/15 09:03:18;;;;;;;37.42;8.27;;;;;;;;;;5073764;28;20040;-61
2021/11/15 09:05:48;;;;;;;39.47;8.75;;;;;;;;;;5057769;28;20394;-60
2021/11/15 09:08:14;;;;;;;34.00;8.95;;;;;;;;;;5074442;28;20035;-59
2021/11/15 09:10:42;;;;;;;33.63;9.60;;;;;;;;;;5076680;28;20125;-60
2021/11/15 09:13:07;;;;;;;35.45;8.98;;;;;;;;;;5054176;28;20384;-60
2021/11/15 09:15:41;;;;;;;37.95;8.18;;;;;;;;;;5060843;28;20043;-60
2021/11/15 09:18:06;;;;;;;33.22;8.77;;;;;;;;;;5056347;28;20137;-59
2021/11/15 09:20:32;;;;;;;38.25;9.18;;;;;;;;;;5079818;28;20028;-60
2021/11/15 09:22:59;;;;;;;36.20;10.65;;;;;;;;;;5074841;28;20031;-59
2021/11/15 09:25:30;;;;;;;43.65;14.30;;;;;;;;;;5071821;28;20035;-62
2021/11/15 09:27:58;;;;;;;44.50;12.27;;;;;;;;;;5075458;28;20139;-60
2021/11/15 09:30:28;;;;;;;45.03;11.82;;;;;;;;;;5072977;28;20049;-58
2021/11/15 09:32:53;;;;;;;35.78;10.18;;;;;;;;;;5073695;28;20032;-61
2021/11/15 09:35:22;;;;;;;37.85;10.35;;;;;;;;;;5072264;28;20027;-60
2021/11/15 09:37:52;;;;;;;30.75;9.18;;;;;;;;;;5072922;28;20032;-59
2021/11/15 09:40:18;;;;;;;34.20;8.07;;;;;;;;;;5072666;28;20092;-60
2021/11/15 09:42:50;;;;;;;29.17;7.90;;;;;;;;;;5075017;28;20025;-60
2021/11/15 09:45:20;;;;;;;27.35;7.18;;;;;;;;;;5071871;28;20027;-59
2021/11/15 09:47:49;;;;;;;30.35;8.85;;;;;;;;;;5090619;27;20124;-60
2021/11/15 09:50:19;;;;;;;23.58;7.78;;;;;;;;;;5078165;28;20494;-60
2021/11/15 09:52:47;;;;;;;24.50;7.55;;;;;;;;;;5074253;28;20073;-58
2021/11/15 09:55:16;;;;;;;29.00;8.18;;;;;;;;;;5075229;28;20031;-60
2021/11/15 09:57:47;;;;;;;37.83;7.55;;;;;;;;;;5056849;28;20051;-60
2021/11/15 10:00:20;;;;;;;23.30;7.22;;;;;;;;;;5078221;28;20040;-61
2021/11/15 10:02:48;;;;;;;21.13;6.72;;;;;;;;;;5074661;28;20315;-61
2021/11/15 10:05:14;;;;;;;27.52;7.43;;;;;;;;;;5061387;28;21496;-60
2021/11/15 10:07:58;;;;;;;17.33;6.38;;;;;;;;;;5076101;28;20035;-60
2021/11/15 10:10:28;;;;;;;25.27;7.40;;;;;;;;;;5075874;28;20371;-59
2021/11/15 10:13:07;;;;;;;21.30;6.93;;;;;;;;;;5081766;28;20115;-60
2021/11/15 10:15:51;;;;;;;31.63;7.65;;;;;;;;;;5087026;27;20485;-59
2021/11/15 10:18:36;;;;;;;26.25;7.40;;;;;;;;;;5073851;28;20400;-60
2021/11/15 10:21:03;;;;;;;25.80;7.70;;;;;;;;;;5080948;28;20123;-59
2021/11/15 10:23:36;;;;;;;29.90;7.28;;;;;;;;;;5070601;28;20024;-59
2021/11/15 10:26:19;;;;;;;25.48;7.45;;;;;;;;;;5077929;28;20505;-59
2021/11/15 10:28:45;;;;;;;25.27;7.57;;;;;;;;;;5071454;28;20027;-59
2021/11/15 10:31:34;;;;;;;28.92;7.05;;;;;;;;;;5077477;28;20640;-60
2021/11/15 10:34:00;;;;;;;18.80;5.80;;;;;;;;;;5061918;28;20130;-60
2021/11/15 10:36:45;;;;;;;15.95;6.10;;;;;;;;;;5076449;28;20032;-60
2021/11/15 10:39:13;;;;;;;19.58;6.75;;;;;;;;;;5084341;27;21299;-60
2021/11/15 10:41:39;;;;;;;22.98;5.95;;;;;;;;;;5078446;28;20031;-60
2021/11/15 10:44:12;;;;;;;24.77;5.70;;;;;;;;;;5081875;28;20036;-60
2021/11/15 10:46:38;;;;;;;21.73;5.47;;;;;;;;;;5075318;28;20596;-60
2021/11/15 10:49:08;;;;;;;18.98;6.05;;;;;;;;;;5081809;28;20638;-59
2021/11/15 10:51:46;;;;;;;17.05;6.30;;;;;;;;;;5075548;28;20885;-60
2021/11/15 10:57:21;;;;;;;19.65;5.95;;;;;;;;;;5076445;28;20071;-61
2021/11/15 11:00:07;;;;;;;21.58;5.10;;;;;;;;;;5077644;27;20048;-60
2021/11/15 11:02:37;;;;;;;16.05;4.80;;;;;;;;;;5068378;28;20479;-59
2021/11/15 11:05:28;;;;;;;23.38;5.45;;;;;;;;;;5078907;28;20039;-59
2021/11/15 11:08:05;;;;;;;15.98;4.82;;;;;;;;;;5077016;28;20035;-62
2021/11/15 11:10:31;;;;;;;14.88;4.55;;;;;;;;;;5062097;28;20035;-60
2021/11/15 11:12:58;;;;;;;19.15;5.07;;;;;;;;;;5078682;28;20016;-59
2021/11/15 11:15:35;;;;;;;23.02;6.13;;;;;;;;;;5076685;27;20040;-60
2021/11/15 11:26:36;;;;;;;25.48;6.13;;;;;;;;;;5262021;22;20049;-60
2021/11/15 11:29:15;;;;;;;20.48;6.75;;;;;;;;;;5002148;28;20034;-60
2021/11/15 11:31:42;;;;;;;31.00;7.75;;;;;;;;;;4984964;28;20938;-61
2021/11/15 11:34:07;;;;;;;26.13;7.85;;;;;;;;;;5003063;28;20076;-61
2021/11/15 11:36:35;;;;;;;43.40;11.82;;;;;;;;;;4987767;28;20579;-59
2021/11/15 11:39:08;;;;;;;43.85;13.13;;;;;;;;;;4999580;28;20026;-60
2021/11/15 11:41:37;;;;;;;59.42;14.40;;;;;;;;;;5000679;28;20536;-60
2021/11/15 11:44:08;;;;;;;53.13;14.25;;;;;;;;;;4982124;28;22094;-60
2021/11/15 11:46:34;;;;;;;64.80;16.92;;;;;;;;;;4984069;28;20033;-61
2021/11/15 11:49:18;;;;;;;56.47;17.42;;;;;;;;;;4984065;28;20680;-60
2021/11/15 11:51:49;;;;;;;69.32;17.40;;;;;;;;;;4980579;28;20168;-59
2021/11/15 11:54:42;;;;;;;73.40;19.27;;;;;;;;;;4984975;28;20026;-61
2021/11/15 11:57:19;;;;;;;67.93;18.25;;;;;;;;;;5001621;28;20026;-60
2021/11/15 11:59:45;;;;;;;74.82;18.90;;;;;;;;;;4986239;28;20034;-60
2021/11/15 12:02:13;;;;;;;74.38;19.55;;;;;;;;;;4983969;28;20061;-59
2021/11/15 12:04:51;;;;;;;70.35;18.25;;;;;;;;;;4985215;28;20057;-59
2021/11/15 12:10:46;;;;;;;79.70;19.75;;;;;;;;;;4984982;28;20687;-60
2021/11/15 12:13:19;;;;;;;67.70;19.88;;;;;;;;;;4986692;28;20045;-59
2021/11/15 12:15:58;;;;;;;78.95;20.27;;;;;;;;;;4982939;28;20091;-59
2021/11/15 12:18:52;;;;;;;70.93;19.33;;;;;;;;;;4982878;28;20290;-59
2021/11/15 12:21:38;;;;;;;80.78;20.98;;;;;;;;;;4983549;28;20111;-59
2021/11/15 12:24:06;;;;;;;66.55;18.80;;;;;;;;;;4965319;28;21166;-60
2021/11/15 12:26:39;;;;;;;79.43;20.05;;;;;;;;;;4981075;28;20097;-59
2021/11/15 12:29:19;;;;;;;74.10;19.60;;;;;;;;;;5001701;28;20072;-59
2021/11/15 12:31:46;;;;;;;76.20;19.98;;;;;;;;;;4982916;28;20030;-61
2021/11/15 12:34:14;;;;;;;74.35;21.00;;;;;;;;;;4984870;28;20385;-59
2021/11/15 12:36:46;;;;;;;68.53;19.98;;;;;;;;;;4976921;28;20033;-59
2021/11/15 12:39:14;;;;;;;87.18;20.85;;;;;;;;;;4999326;28;20518;-60
2021/11/15 12:41:40;;;;;;;83.10;18.95;;;;;;;;;;4983649;28;21880;-61
2021/11/15 12:47:42;;;;;;;80.30;19.77;;;;;;;;;;4983389;28;20088;-60
2021/11/15 12:50:15;;;;;;;63.47;18.00;;;;;;;;;;4981126;28;20044;-59
2021/11/15 12:56:37;;;;;;;78.43;19.58;;;;;;;;;;4983859;28;20160;-60
2021/11/15 12:59:06;;;;;;;74.75;19.52;;;;;;;;;;4982872;28;20026;-59
2021/11/15 13:05:10;;;;;;;81.10;20.83;;;;;;;;;;4982631;28;20131;-60
2021/11/15 13:07:39;;;;;;;86.00;19.65;;;;;;;;;;4984417;28;20520;-59
2021/11/15 13:10:05;;;;;;;66.47;19.83;;;;;;;;;;4981724;28;20045;-61
2021/11/15 13:12:37;;;;;;;83.15;20.80;;;;;;;;;;4985670;28;20409;-59
2021/11/15 13:18:41;;;;;;;82.35;19.88;;;;;;;;;;4984853;28;20036;-59
2021/11/15 13:21:10;;;;;;;73.93;19.55;;;;;;;;;;4984213;28;20400;-59
2021/11/15 13:23:36;;;;;;;71.85;19.85;;;;;;;;;;4985749;28;20026;-59
2021/11/15 13:26:02;;;;;;;66.00;19.70;;;;;;;;;;4984587;28;20026;-60
2021/11/15 13:28:35;;;;;;;64.55;20.23;;;;;;;;;;4984044;28;20056;-60
2021/11/15 13:31:10;;;;;;;58.10;17.50;;;;;;;;;;5001773;28;20088;-59
2021/11/15 13:33:36;;;;;;;67.45;18.77;;;;;;;;;;4983288;28;20045;-60
2021/11/15 13:36:02;;;;;;;71.82;19.88;;;;;;;;;;4951035;28;20029;-61
2021/11/15 13:38:30;;;;;;;65.05;19.13;;;;;;;;;;5002127;28;20037;-60
2021/11/15 13:40:58;;;;;;;67.72;19.23;;;;;;;;;;4967326;28;20026;-60
2021/11/15 13:43:25;;;;;;;56.38;18.48;;;;;;;;;;4986453;28;20045;-59
2021/11/15 13:45:55;;;;;;;73.50;20.40;;;;;;;;;;4968865;28;20041;-59
2021/11/15 13:48:25;;;;;;;74.32;19.80;;;;;;;;;;4985249;28;20041;-60
2021/11/15 13:50:51;;;;;;;74.18;18.23;;;;;;;;;;4998949;28;20682;-59
2021/11/15 13:53:17;;;;;;;69.75;18.20;;;;;;;;;;4986211;28;20034;-61
2021/11/15 13:58:48;;;;;;;62.92;19.15;;;;;;;;;;4983508;28;20041;-60
2021/11/15 14:01:16;;;;;;;74.50;18.85;;;;;;;;;;4984796;28;20121;-62
2021/11/15 14:03:44;;;;;;;64.40;18.08;;;;;;;;;;4977933;28;20048;-61
2021/11/15 14:09:19;;;;;;;61.53;17.73;;;;;;;;;;4987574;28;20045;-59
2021/11/15 14:11:45;;;;;;;61.20;18.58;;;;;;;;;;4986462;28;20038;-61
2021/11/15 14:14:11;;;;;;;59.50;17.80;;;;;;;;;;4986371;28;20160;-60
2021/11/15 14:16:43;;;;;;;72.53;21.75;;;;;;;;;;4989883;28;20034;-60
2021/11/15 14:19:14;;;;;;;60.75;18.05;;;;;;;;;;4984255;28;20029;-60
2021/11/15 14:21:51;;;;;;;73.90;20.35;;;;;;;;;;4986733;28;20022;-60
2021/11/15 14:28:32;;;;;;;66.18;19.60;;;;;;;;;;4984980;28;20573;-60
2021/11/15 14:30:57;;;;;;;81.45;20.30;;;;;;;;;;5005169;28;20121;-59
2021/11/15 14:33:23;;;;;;;63.88;20.30;;;;;;;;;;4989860;28;20789;-59
2021/11/15 14:35:48;;;;;;;78.03;20.05;;;;;;;;;;4965397;28;20033;-60
2021/11/15 14:38:23;;;;;;;67.80;19.80;;;;;;;;;;4988694;28;20033;-60
2021/11/15 14:40:48;;;;;;;;;;;;;;;;;;5002337;28;20128;-60
2021/11/15 14:43:16;;;;;;;69.47;20.27;;;;;;;;;;5002441;28;19917;-60
2021/11/15 14:45:44;;;;;;;66.32;20.13;;;;;;;;;;4985133;28;20053;-60
2021/11/15 14:48:10;;;;;;;81.85;22.25;;;;;;;;;;4986594;28;20084;-61
2021/11/15 14:50:36;;;;;;;74.88;20.63;;;;;;;;;;4983458;28;20143;-60
2021/11/15 14:53:02;;;;;;;71.32;19.60;;;;;;;;;;4968976;28;20305;-61
2021/11/15 15:02:09;;;;;;;76.85;20.38;;;;;;;;;;4988605;28;20171;-61
2021/11/15 15:08:40;;;;;;;86.28;22.63;;;;;;;;;;4986018;28;20088;-60
2021/11/15 15:11:06;;;;;;;64.18;20.10;;;;;;;;;;4989082;28;20046;-60
2021/11/15 15:13:36;;;;;;;82.78;22.92;;;;;;;;;;4987568;28;20197;-60
2021/11/15 15:16:02;;;;;;;78.35;22.00;;;;;;;;;;4986194;28;21729;-61
2021/11/15 15:18:35;;;;;;;74.00;18.98;;;;;;;;;;4986107;28;20099;-58
2021/11/15 15:21:07;;;;;;;64.95;20.30;;;;;;;;;;4987999;28;20038;-60
2021/11/15 15:23:33;;;;;;;67.18;19.67;;;;;;;;;;4988553;28;20026;-61
2021/11/15 15:25:58;;;;;;;68.13;21.42;;;;;;;;;;4973757;28;20108;-59
2021/11/15 15:28:26;;;;;;;82.65;21.33;;;;;;;;;;4988854;28;21020;-59
2021/11/15 15:31:10;;;;;;;84.40;20.90;;;;;;;;;;4988884;28;20049;-61
2021/11/15 15:33:38;;;;;;;69.72;20.88;;;;;;;;;;4989189;28;20062;-61
2021/11/15 15:36:04;;;;;;;78.78;19.63;;;;;;;;;;4989455;28;20103;-60